sensor_id;sensor_type;location;lat;lon;timestamp;pressure;altitude;pressure_sealevel;temperature;humidity
20630;BME280;17386;43.846;25.950;2023-08-17T00:00:56;101277.19;;;25.51;79.81
20630;BME280;17386;43.846;25.950;2023-08-17T00:03:21;101273.59;;;25.51;79.38
20630;BME280;17386;43.846;25.950;2023-08-17T00:05:48;101282.47;;;25.53;79.35
20630;BME280;17386;43.846;25.950;2023-08-17T00:08:15;101269.88;;;25.52;78.22
20630;BME280;17386;43.846;25.950;2023-08-17T00:10:41;101260.16;;;25.49;77.87
20630;BME280;17386;43.846;25.950;2023-08-17T00:13:08;101267.16;;;25.52;77.51
20630;BME280;17386;43.846;25.950;2023-08-17T00:15:34;101267.31;;;25.50;77.32
20630;BME280;17386;43.846;25.950;2023-08-17T00:18:02;101276.63;;;25.48;77.60
20630;BME280;17386;43.846;25.950;2023-08-17T00:20:29;101281.19;;;25.47;77.44
20630;BME280;17386;43.846;25.950;2023-08-17T00:22:56;101276.88;;;25.45;77.70
20630;BME280;17386;43.846;25.950;2023-08-17T00:25:22;101275.03;;;25.45;77.47
20630;BME280;17386;43.846;25.950;2023-08-17T00:27:49;101277.88;;;25.44;77.42
20630;BME280;17386;43.846;25.950;2023-08-17T00:30:16;101268.16;;;25.41;77.69
20630;BME280;17386;43.846;25.950;2023-08-17T00:32:42;101274.31;;;25.43;77.86
20630;BME280;17386;43.846;25.950;2023-08-17T00:35:09;101268.28;;;25.40;77.70
20630;BME280;17386;43.846;25.950;2023-08-17T00:37:35;101266.44;;;25.40;77.80
20630;BME280;17386;43.846;25.950;2023-08-17T00:40:02;101261.41;;;25.35;78.06
20630;BME280;17386;43.846;25.950;2023-08-17T00:42:29;101263.81;;;25.38;77.76
20630;BME280;17386;43.846;25.950;2023-08-17T00:44:55;101262.97;;;25.38;77.77
20630;BME280;17386;43.846;25.950;2023-08-17T00:47:21;101262.97;;;25.38;77.65
20630;BME280;17386;43.846;25.950;2023-08-17T00:49:46;101259.69;;;25.34;77.21
20630;BME280;17386;43.846;25.950;2023-08-17T00:52:12;101260.41;;;25.36;77.17
20630;BME280;17386;43.846;25.950;2023-08-17T00:54:37;101267.69;;;25.36;77.17
20630;BME280;17386;43.846;25.950;2023-08-17T00:57:04;101263.13;;;25.36;76.89
20630;BME280;17386;43.846;25.950;2023-08-17T00:59:31;101252.63;;;25.32;76.52
20630;BME280;17386;43.846;25.950;2023-08-17T01:01:57;101246.22;;;25.33;76.38
20630;BME280;17386;43.846;25.950;2023-08-17T01:04:23;101256.34;;;25.31;76.56
20630;BME280;17386;43.846;25.950;2023-08-17T01:06:48;101255.50;;;25.30;76.31
20630;BME280;17386;43.846;25.950;2023-08-17T01:09:15;101258.66;;;25.26;76.32
20630;BME280;17386;43.846;25.950;2023-08-17T01:11:56;101251.34;;;25.26;76.38
20630;BME280;17386;43.846;25.950;2023-08-17T01:14:36;101256.19;;;25.23;76.72
20630;BME280;17386;43.846;25.950;2023-08-17T01:17:09;101254.63;;;25.20;76.59
20630;BME280;17386;43.846;25.950;2023-08-17T01:19:37;101251.16;;;25.18;76.56
20630;BME280;17386;43.846;25.950;2023-08-17T01:22:05;101265.75;;;25.17;76.79
20630;BME280;17386;43.846;25.950;2023-08-17T01:24:30;101262.47;;;25.14;76.67
20630;BME280;17386;43.846;25.950;2023-08-17T01:26:57;101261.00;;;25.09;76.95
20630;BME280;17386;43.846;25.950;2023-08-17T01:29:24;101268.03;;;25.12;76.90
20630;BME280;17386;43.846;25.950;2023-08-17T01:34:50;101256.84;;;25.05;76.59
20630;BME280;17386;43.846;25.950;2023-08-17T01:37:21;101258.78;;;25.03;76.46
20630;BME280;17386;43.846;25.950;2023-08-17T01:39:52;101263.38;;;25.03;76.31
20630;BME280;17386;43.846;25.950;2023-08-17T01:42:21;101260.66;;;25.03;76.50
20630;BME280;17386;43.846;25.950;2023-08-17T01:44:47;101268.34;;;24.98;76.25
20630;BME280;17386;43.846;25.950;2023-08-17T01:47:13;101268.34;;;24.98;76.38
20630;BME280;17386;43.846;25.950;2023-08-17T01:49:38;101263.78;;;24.98;76.13
20630;BME280;17386;43.846;25.950;2023-08-17T01:52:04;101263.78;;;24.98;75.60
20630;BME280;17386;43.846;25.950;2023-08-17T01:54:31;101264.50;;;25.00;75.45
20630;BME280;17386;43.846;25.950;2023-08-17T01:56:57;101260.78;;;25.01;75.09
20630;BME280;17386;43.846;25.950;2023-08-17T01:59:22;101265.38;;;25.01;75.43
20630;BME280;17386;43.846;25.950;2023-08-17T02:01:49;101260.06;;;24.99;75.20
20630;BME280;17386;43.846;25.950;2023-08-17T02:04:15;101265.75;;;24.96;75.29
20630;BME280;17386;43.846;25.950;2023-08-17T02:06:41;101259.59;;;24.94;75.65
20630;BME280;17386;43.846;25.950;2023-08-17T02:09:08;101257.44;;;24.88;75.32
20630;BME280;17386;43.846;25.950;2023-08-17T02:11:35;101254.00;;;24.86;75.82
20630;BME280;17386;43.846;25.950;2023-08-17T02:14:04;101253.13;;;24.86;75.48
20630;BME280;17386;43.846;25.950;2023-08-17T02:16:31;101254.13;;;24.85;75.90
20630;BME280;17386;43.846;25.950;2023-08-17T02:18:57;101254.38;;;24.81;75.50
20630;BME280;17386;43.846;25.950;2023-08-17T02:21:24;101253.81;;;24.78;75.94
20630;BME280;17386;43.846;25.950;2023-08-17T02:23:50;101250.63;;;24.73;75.54
20630;BME280;17386;43.846;25.950;2023-08-17T02:26:17;101259.78;;;24.72;75.64
20630;BME280;17386;43.846;25.950;2023-08-17T02:28:43;101259.88;;;24.70;75.57
20630;BME280;17386;43.846;25.950;2023-08-17T02:31:10;101261.88;;;24.68;75.64
20630;BME280;17386;43.846;25.950;2023-08-17T02:33:37;101266.59;;;24.66;75.83
20630;BME280;17386;43.846;25.950;2023-08-17T02:36:03;101269.31;;;24.66;76.10
20630;BME280;17386;43.846;25.950;2023-08-17T02:38:30;101271.16;;;24.66;76.21
20630;BME280;17386;43.846;25.950;2023-08-17T02:40:57;101269.16;;;24.68;76.21
20630;BME280;17386;43.846;25.950;2023-08-17T02:43:24;101276.31;;;24.69;76.17
20630;BME280;17386;43.846;25.950;2023-08-17T02:45:51;101268.44;;;24.66;76.15
20630;BME280;17386;43.846;25.950;2023-08-17T02:48:18;101271.03;;;24.67;76.33
20630;BME280;17386;43.846;25.950;2023-08-17T02:50:45;101261.41;;;24.63;76.82
20630;BME280;17386;43.846;25.950;2023-08-17T02:53:11;101270.31;;;24.65;76.42
20630;BME280;17386;43.846;25.950;2023-08-17T02:55:36;101275.59;;;24.67;76.35
20630;BME280;17386;43.846;25.950;2023-08-17T02:58:03;101262.88;;;24.67;76.95
20630;BME280;17386;43.846;25.950;2023-08-17T03:00:30;101269.56;;;24.63;77.61
20630;BME280;17386;43.846;25.950;2023-08-17T03:02:56;101271.84;;;24.58;80.13
20630;BME280;17386;43.846;25.950;2023-08-17T03:05:23;101264.28;;;24.62;81.16
20630;BME280;17386;43.846;25.950;2023-08-17T03:07:49;101259.84;;;24.61;80.16
20630;BME280;17386;43.846;25.950;2023-08-17T03:10:16;101267.25;;;24.59;80.48
20630;BME280;17386;43.846;25.950;2023-08-17T03:12:43;101259.38;;;24.55;81.13
20630;BME280;17386;43.846;25.950;2023-08-17T03:15:10;101264.06;;;24.53;80.92
20630;BME280;17386;43.846;25.950;2023-08-17T03:17:36;101268.50;;;24.54;80.27
20630;BME280;17386;43.846;25.950;2023-08-17T03:20:03;101274.81;;;24.55;79.66
20630;BME280;17386;43.846;25.950;2023-08-17T03:22:33;101272.38;;;24.52;79.01
20630;BME280;17386;43.846;25.950;2023-08-17T03:25:00;101267.94;;;24.51;79.39
20630;BME280;17386;43.846;25.950;2023-08-17T03:27:27;101273.75;;;24.46;78.44
20630;BME280;17386;43.846;25.950;2023-08-17T03:29:55;101279.91;;;24.48;78.21
20630;BME280;17386;43.846;25.950;2023-08-17T03:32:21;101284.47;;;24.48;77.91
20630;BME280;17386;43.846;25.950;2023-08-17T03:34:47;101270.03;;;24.47;77.76
20630;BME280;17386;43.846;25.950;2023-08-17T03:37:14;101257.25;;;24.38;78.08
20630;BME280;17386;43.846;25.950;2023-08-17T03:39:39;101272.75;;;24.47;77.71
20630;BME280;17386;43.846;25.950;2023-08-17T03:42:04;101271.75;;;24.48;77.63
20630;BME280;17386;43.846;25.950;2023-08-17T03:44:30;101274.59;;;24.47;77.75
20630;BME280;17386;43.846;25.950;2023-08-17T03:46:55;101276.47;;;24.46;77.64
20630;BME280;17386;43.846;25.950;2023-08-17T03:49:22;101283.03;;;24.44;78.01
20630;BME280;17386;43.846;25.950;2023-08-17T03:51:47;101284.41;;;24.38;78.14
20630;BME280;17386;43.846;25.950;2023-08-17T03:54:13;101291.69;;;24.38;78.63
20630;BME280;17386;43.846;25.950;2023-08-17T03:56:39;101272.69;;;24.38;78.75
20630;BME280;17386;43.846;25.950;2023-08-17T03:59:06;101285.50;;;24.36;78.53
20630;BME280;17386;43.846;25.950;2023-08-17T04:01:32;101286.25;;;24.38;78.98
20630;BME280;17386;43.846;25.950;2023-08-17T04:03:59;101295.00;;;24.41;79.07
20630;BME280;17386;43.846;25.950;2023-08-17T04:06:25;101280.69;;;24.39;79.22
20630;BME280;17386;43.846;25.950;2023-08-17T04:08:52;101288.47;;;24.44;78.78
20630;BME280;17386;43.846;25.950;2023-08-17T04:11:20;101285.00;;;24.42;79.07
20630;BME280;17386;43.846;25.950;2023-08-17T04:13:47;101290.75;;;24.48;78.85
20630;BME280;17386;43.846;25.950;2023-08-17T04:16:12;101289.66;;;24.51;79.08
20630;BME280;17386;43.846;25.950;2023-08-17T04:18:39;101287.66;;;24.53;79.28
20630;BME280;17386;43.846;25.950;2023-08-17T04:21:05;101283.47;;;24.49;79.09
20630;BME280;17386;43.846;25.950;2023-08-17T04:23:33;101291.38;;;24.52;79.05
20630;BME280;17386;43.846;25.950;2023-08-17T04:25:59;101273.03;;;24.44;79.28
20630;BME280;17386;43.846;25.950;2023-08-17T04:28:26;101292.81;;;24.56;79.54
20630;BME280;17386;43.846;25.950;2023-08-17T04:30:53;101287.53;;;24.54;79.53
20630;BME280;17386;43.846;25.950;2023-08-17T04:33:19;101288.72;;;24.62;79.51
20630;BME280;17386;43.846;25.950;2023-08-17T04:35:49;101290.56;;;24.61;79.43
20630;BME280;17386;43.846;25.950;2023-08-17T04:38:15;101294.88;;;24.64;79.62
20630;BME280;17386;43.846;25.950;2023-08-17T04:40:42;101289.19;;;24.67;79.71
20630;BME280;17386;43.846;25.950;2023-08-17T04:43:10;101294.34;;;24.70;79.62
20630;BME280;17386;43.846;25.950;2023-08-17T04:45:35;101283.38;;;24.71;79.85
20630;BME280;17386;43.846;25.950;2023-08-17T04:48:02;101294.44;;;24.79;79.76
20630;BME280;17386;43.846;25.950;2023-08-17T04:50:28;101289.84;;;24.80;79.89
20630;BME280;17386;43.846;25.950;2023-08-17T04:52:53;101300.44;;;24.83;79.63
20630;BME280;17386;43.846;25.950;2023-08-17T04:55:20;101294.47;;;24.89;79.69
20630;BME280;17386;43.846;25.950;2023-08-17T04:57:45;101300.22;;;24.96;79.58
20630;BME280;17386;43.846;25.950;2023-08-17T05:00:13;101300.56;;;25.02;79.90
20630;BME280;17386;43.846;25.950;2023-08-17T05:02:39;101309.78;;;25.11;79.51
20630;BME280;17386;43.846;25.950;2023-08-17T05:05:06;101296.41;;;25.19;79.27
20630;BME280;17386;43.846;25.950;2023-08-17T05:07:33;101301.28;;;25.25;79.21
20630;BME280;17386;43.846;25.950;2023-08-17T05:09:58;101286.41;;;25.29;78.86
20630;BME280;17386;43.846;25.950;2023-08-17T05:12:25;101297.91;;;25.33;78.75
20630;BME280;17386;43.846;25.950;2023-08-17T05:14:50;101296.75;;;25.35;78.91
20630;BME280;17386;43.846;25.950;2023-08-17T05:17:17;101298.06;;;25.41;78.38
20630;BME280;17386;43.846;25.950;2023-08-17T05:19:44;101302.53;;;25.52;78.53
20630;BME280;17386;43.846;25.950;2023-08-17T05:22:12;101304.25;;;25.53;78.28
20630;BME280;17386;43.846;25.950;2023-08-17T05:24:39;101311.16;;;25.57;78.49
20630;BME280;17386;43.846;25.950;2023-08-17T05:27:05;101311.59;;;25.62;78.15
20630;BME280;17386;43.846;25.950;2023-08-17T05:29:32;101297.31;;;25.70;77.57
20630;BME280;17386;43.846;25.950;2023-08-17T05:32:01;101292.56;;;25.72;77.48
20630;BME280;17386;43.846;25.950;2023-08-17T05:34:29;101301.94;;;25.79;77.05
20630;BME280;17386;43.846;25.950;2023-08-17T05:36:56;101304.53;;;25.90;76.52
20630;BME280;17386;43.846;25.950;2023-08-17T05:39:22;101304.84;;;25.97;76.56
20630;BME280;17386;43.846;25.950;2023-08-17T05:41:49;101303.53;;;26.01;75.90
20630;BME280;17386;43.846;25.950;2023-08-17T05:44:16;101291.22;;;26.06;75.69
20630;BME280;17386;43.846;25.950;2023-08-17T05:46:43;101278.91;;;26.12;75.95
20630;BME280;17386;43.846;25.950;2023-08-17T05:49:10;101288.09;;;26.21;75.81
20630;BME280;17386;43.846;25.950;2023-08-17T05:51:35;101286.66;;;26.26;75.66
20630;BME280;17386;43.846;25.950;2023-08-17T05:54:01;101274.03;;;26.35;75.01
20630;BME280;17386;43.846;25.950;2023-08-17T05:56:26;101281.25;;;26.45;74.49
20630;BME280;17386;43.846;25.950;2023-08-17T05:58:53;101280.50;;;26.53;73.96
20630;BME280;17386;43.846;25.950;2023-08-17T06:01:18;101275.66;;;26.57;74.00
20630;BME280;17386;43.846;25.950;2023-08-17T06:03:44;101276.06;;;26.62;73.41
20630;BME280;17386;43.846;25.950;2023-08-17T06:06:10;101274.47;;;26.69;73.67
20630;BME280;17386;43.846;25.950;2023-08-17T06:08:37;101282.06;;;26.75;73.24
20630;BME280;17386;43.846;25.950;2023-08-17T06:11:02;101277.88;;;26.81;72.63
20630;BME280;17386;43.846;25.950;2023-08-17T06:13:28;101281.03;;;26.86;72.76
20630;BME280;17386;43.846;25.950;2023-08-17T06:15:57;101286.44;;;26.95;72.41
20630;BME280;17386;43.846;25.950;2023-08-17T06:18:23;101286.47;;;27.05;72.10
20630;BME280;17386;43.846;25.950;2023-08-17T06:20:48;101282.16;;;27.12;71.78
20630;BME280;17386;43.846;25.950;2023-08-17T06:23:17;101285.69;;;27.22;70.99
20630;BME280;17386;43.846;25.950;2023-08-17T06:25:42;101288.81;;;27.27;71.01
20630;BME280;17386;43.846;25.950;2023-08-17T06:28:07;101280.19;;;27.32;70.91
20630;BME280;17386;43.846;25.950;2023-08-17T06:30:34;101289.19;;;27.42;70.55
20630;BME280;17386;43.846;25.950;2023-08-17T06:33:01;101297.72;;;27.57;71.29
20630;BME280;17386;43.846;25.950;2023-08-17T06:35:28;101291.81;;;27.62;70.06
20630;BME280;17386;43.846;25.950;2023-08-17T06:37:54;101294.84;;;27.59;71.66
20630;BME280;17386;43.846;25.950;2023-08-17T06:40:23;101300.16;;;27.60;71.59
20630;BME280;17386;43.846;25.950;2023-08-17T06:42:49;101294.22;;;27.65;71.41
20630;BME280;17386;43.846;25.950;2023-08-17T06:45:14;101303.03;;;27.68;71.83
20630;BME280;17386;43.846;25.950;2023-08-17T06:47:45;101308.31;;;27.70;71.50
20630;BME280;17386;43.846;25.950;2023-08-17T06:50:11;101310.03;;;27.71;71.35
20630;BME280;17386;43.846;25.950;2023-08-17T06:52:36;101304.28;;;27.64;71.79
20630;BME280;17386;43.846;25.950;2023-08-17T06:55:03;101304.78;;;27.60;72.40
20630;BME280;17386;43.846;25.950;2023-08-17T06:57:30;101303.94;;;27.49;72.86
20630;BME280;17386;43.846;25.950;2023-08-17T06:59:56;101300.28;;;27.59;72.71
20630;BME280;17386;43.846;25.950;2023-08-17T07:02:23;101296.47;;;27.79;72.46
20630;BME280;17386;43.846;25.950;2023-08-17T07:04:49;101300.25;;;27.96;70.85
20630;BME280;17386;43.846;25.950;2023-08-17T07:07:16;101298.72;;;28.11;70.58
20630;BME280;17386;43.846;25.950;2023-08-17T07:09:43;101304.66;;;28.24;70.33
20630;BME280;17386;43.846;25.950;2023-08-17T07:12:09;101289.50;;;28.30;69.39
20630;BME280;17386;43.846;25.950;2023-08-17T07:14:35;101303.03;;;28.49;69.65
20630;BME280;17386;43.846;25.950;2023-08-17T07:17:00;101302.47;;;28.64;69.53
20630;BME280;17386;43.846;25.950;2023-08-17T07:19:25;101305.31;;;28.80;69.14
20630;BME280;17386;43.846;25.950;2023-08-17T07:21:51;101304.78;;;28.94;68.12
20630;BME280;17386;43.846;25.950;2023-08-17T07:24:19;101300.03;;;28.96;68.17
20630;BME280;17386;43.846;25.950;2023-08-17T07:26:46;101302.97;;;28.85;66.64
20630;BME280;17386;43.846;25.950;2023-08-17T07:29:11;101305.31;;;28.98;67.22
20630;BME280;17386;43.846;25.950;2023-08-17T07:31:41;101298.72;;;29.08;66.94
20630;BME280;17386;43.846;25.950;2023-08-17T07:34:07;101302.69;;;29.14;66.16
20630;BME280;17386;43.846;25.950;2023-08-17T07:36:34;101302.47;;;29.07;65.91
20630;BME280;17386;43.846;25.950;2023-08-17T07:39:01;101304.59;;;28.96;66.10
20630;BME280;17386;43.846;25.950;2023-08-17T07:41:27;101303.69;;;29.13;66.38
20630;BME280;17386;43.846;25.950;2023-08-17T07:43:53;101300.38;;;29.27;65.71
20630;BME280;17386;43.846;25.950;2023-08-17T07:46:20;101304.16;;;29.34;65.45
20630;BME280;17386;43.846;25.950;2023-08-17T07:48:47;101306.00;;;29.26;65.47
20630;BME280;17386;43.846;25.950;2023-08-17T07:51:14;101302.81;;;29.38;65.96
20630;BME280;17386;43.846;25.950;2023-08-17T07:53:39;101302.09;;;29.36;65.72
20630;BME280;17386;43.846;25.950;2023-08-17T07:56:05;101297.16;;;29.32;66.34
20630;BME280;17386;43.846;25.950;2023-08-17T07:58:30;101295.94;;;29.34;66.04
20630;BME280;17386;43.846;25.950;2023-08-17T08:00:57;101297.44;;;29.55;65.26
20630;BME280;17386;43.846;25.950;2023-08-17T08:03:24;101300.56;;;29.68;64.75
20630;BME280;17386;43.846;25.950;2023-08-17T08:05:50;101292.56;;;29.75;63.58
20630;BME280;17386;43.846;25.950;2023-08-17T08:08:17;101292.94;;;29.80;64.01
20630;BME280;17386;43.846;25.950;2023-08-17T08:10:43;101287.81;;;29.93;63.87
20630;BME280;17386;43.846;25.950;2023-08-17T08:13:08;101291.28;;;30.11;62.94
20630;BME280;17386;43.846;25.950;2023-08-17T08:15:34;101292.34;;;30.18;61.83
20630;BME280;17386;43.846;25.950;2023-08-17T08:17:59;101290.47;;;30.35;61.63
20630;BME280;17386;43.846;25.950;2023-08-17T08:20:25;101289.13;;;30.56;60.81
20630;BME280;17386;43.846;25.950;2023-08-17T08:22:50;101282.59;;;30.65;59.98
20630;BME280;17386;43.846;25.950;2023-08-17T08:25:16;101281.75;;;30.72;60.21
20630;BME280;17386;43.846;25.950;2023-08-17T08:27:41;101288.09;;;30.73;59.96
20630;BME280;17386;43.846;25.950;2023-08-17T08:30:07;101284.97;;;30.60;59.88
20630;BME280;17386;43.846;25.950;2023-08-17T08:32:34;101283.31;;;30.75;59.77
20630;BME280;17386;43.846;25.950;2023-08-17T08:35:01;101287.25;;;30.89;59.52
20630;BME280;17386;43.846;25.950;2023-08-17T08:37:28;101280.00;;;30.96;58.95
20630;BME280;17386;43.846;25.950;2023-08-17T08:39:54;101271.44;;;30.91;58.30
20630;BME280;17386;43.846;25.950;2023-08-17T08:42:20;101269.50;;;31.08;57.65
20630;BME280;17386;43.846;25.950;2023-08-17T08:44:47;101278.59;;;31.24;57.67
20630;BME280;17386;43.846;25.950;2023-08-17T08:47:13;101260.75;;;31.12;56.36
20630;BME280;17386;43.846;25.950;2023-08-17T08:49:49;101269.63;;;31.39;56.23
20630;BME280;17386;43.846;25.950;2023-08-17T08:52:19;101263.31;;;31.30;55.82
20630;BME280;17386;43.846;25.950;2023-08-17T08:54:49;101269.53;;;31.55;55.72
20630;BME280;17386;43.846;25.950;2023-08-17T08:57:15;101270.91;;;31.59;54.51
20630;BME280;17386;43.846;25.950;2023-08-17T08:59:45;101264.69;;;31.65;54.72
20630;BME280;17386;43.846;25.950;2023-08-17T09:02:15;101257.66;;;31.63;54.93
20630;BME280;17386;43.846;25.950;2023-08-17T09:04:45;101255.72;;;31.71;55.15
20630;BME280;17386;43.846;25.950;2023-08-17T09:07:15;101256.03;;;31.84;54.31
20630;BME280;17386;43.846;25.950;2023-08-17T09:09:44;101254.69;;;32.03;53.16
20630;BME280;17386;43.846;25.950;2023-08-17T09:12:11;101254.34;;;32.06;51.69
20630;BME280;17386;43.846;25.950;2023-08-17T09:14:38;101257.59;;;32.33;51.19
20630;BME280;17386;43.846;25.950;2023-08-17T09:17:06;101251.34;;;32.39;50.62
20630;BME280;17386;43.846;25.950;2023-08-17T09:19:33;101246.25;;;32.51;50.20
20630;BME280;17386;43.846;25.950;2023-08-17T09:21:59;101235.25;;;32.28;49.43
20630;BME280;17386;43.846;25.950;2023-08-17T09:24:33;101244.16;;;32.53;49.22
20630;BME280;17386;43.846;25.950;2023-08-17T09:26:59;101241.91;;;32.56;48.24
20630;BME280;17386;43.846;25.950;2023-08-17T09:29:27;101231.00;;;32.63;47.56
20630;BME280;17386;43.846;25.950;2023-08-17T09:31:53;101243.94;;;32.77;47.86
20630;BME280;17386;43.846;25.950;2023-08-17T09:34:19;101233.13;;;32.76;47.63
20630;BME280;17386;43.846;25.950;2023-08-17T09:36:48;101224.38;;;32.72;46.05
20630;BME280;17386;43.846;25.950;2023-08-17T09:39:17;101224.59;;;32.85;46.21
20630;BME280;17386;43.846;25.950;2023-08-17T09:41:47;101230.81;;;32.87;45.97
20630;BME280;17386;43.846;25.950;2023-08-17T09:44:13;101217.59;;;32.98;45.48
20630;BME280;17386;43.846;25.950;2023-08-17T09:46:43;101215.59;;;33.06;45.46
20630;BME280;17386;43.846;25.950;2023-08-17T09:49:09;101224.50;;;32.93;44.30
20630;BME280;17386;43.846;25.950;2023-08-17T09:51:36;101218.94;;;33.02;44.73
20630;BME280;17386;43.846;25.950;2023-08-17T09:54:01;101223.28;;;33.11;44.81
20630;BME280;17386;43.846;25.950;2023-08-17T09:56:28;101220.06;;;33.22;44.47
20630;BME280;17386;43.846;25.950;2023-08-17T09:58:54;101212.75;;;33.29;44.11
20630;BME280;17386;43.846;25.950;2023-08-17T10:01:21;101217.66;;;33.34;43.12
20630;BME280;17386;43.846;25.950;2023-08-17T10:03:54;101223.84;;;33.36;43.71
20630;BME280;17386;43.846;25.950;2023-08-17T10:06:24;101211.56;;;33.53;43.63
20630;BME280;17386;43.846;25.950;2023-08-17T10:08:52;101207.72;;;33.69;42.82
20630;BME280;17386;43.846;25.950;2023-08-17T10:11:25;101210.03;;;33.65;42.77
20630;BME280;17386;43.846;25.950;2023-08-17T10:14:08;101203.88;;;33.48;42.09
20630;BME280;17386;43.846;25.950;2023-08-17T10:17:05;101211.09;;;33.86;40.70
20630;BME280;17386;43.846;25.950;2023-08-17T10:19:52;101208.94;;;34.24;40.33
20630;BME280;17386;43.846;25.950;2023-08-17T10:25:11;101191.78;;;35.13;37.02
20630;BME280;17386;43.846;25.950;2023-08-17T10:27:41;101189.50;;;35.77;36.76
20630;BME280;17386;43.846;25.950;2023-08-17T10:30:09;101190.00;;;36.14;35.56
20630;BME280;17386;43.846;25.950;2023-08-17T10:32:37;101200.63;;;36.43;34.77
20630;BME280;17386;43.846;25.950;2023-08-17T10:35:07;101186.53;;;36.78;34.12
20630;BME280;17386;43.846;25.950;2023-08-17T10:37:34;101192.31;;;36.57;33.29
20630;BME280;17386;43.846;25.950;2023-08-17T10:40:00;101187.88;;;36.56;32.62
20630;BME280;17386;43.846;25.950;2023-08-17T10:42:33;101184.84;;;36.77;32.65
20630;BME280;17386;43.846;25.950;2023-08-17T10:45:25;101186.97;;;36.82;32.18
20630;BME280;17386;43.846;25.950;2023-08-17T10:48:44;101191.06;;;36.86;31.92
20630;BME280;17386;43.846;25.950;2023-08-17T10:51:08;101187.00;;;36.68;32.18
20630;BME280;17386;43.846;25.950;2023-08-17T10:53:40;101185.91;;;36.89;32.25
20630;BME280;17386;43.846;25.950;2023-08-17T10:56:11;101193.38;;;36.69;31.59
20630;BME280;17386;43.846;25.950;2023-08-17T10:58:39;101189.31;;;36.91;31.32
20630;BME280;17386;43.846;25.950;2023-08-17T11:01:07;101187.41;;;37.50;30.68
20630;BME280;17386;43.846;25.950;2023-08-17T11:03:34;101175.66;;;37.55;30.46
20630;BME280;17386;43.846;25.950;2023-08-17T11:06:15;101180.88;;;37.24;30.54
20630;BME280;17386;43.846;25.950;2023-08-17T11:08:54;101174.81;;;36.83;31.19
20630;BME280;17386;43.846;25.950;2023-08-17T11:11:24;101174.69;;;36.25;31.78
20630;BME280;17386;43.846;25.950;2023-08-17T11:13:52;101180.03;;;36.39;32.07
20630;BME280;17386;43.846;25.950;2023-08-17T11:16:19;101172.97;;;36.57;31.82
20630;BME280;17386;43.846;25.950;2023-08-17T11:18:46;101164.81;;;36.82;31.30
20630;BME280;17386;43.846;25.950;2023-08-17T11:21:13;101161.47;;;36.66;31.68
20630;BME280;17386;43.846;25.950;2023-08-17T11:23:43;101158.72;;;36.60;31.85
20630;BME280;17386;43.846;25.950;2023-08-17T11:26:10;101155.09;;;36.53;31.61
20630;BME280;17386;43.846;25.950;2023-08-17T11:28:37;101146.78;;;36.26;32.15
20630;BME280;17386;43.846;25.950;2023-08-17T11:31:10;101148.94;;;35.98;32.65
20630;BME280;17386;43.846;25.950;2023-08-17T11:33:38;101158.03;;;35.78;32.46
20630;BME280;17386;43.846;25.950;2023-08-17T11:36:08;101161.41;;;35.74;32.97
20630;BME280;17386;43.846;25.950;2023-08-17T11:38:42;101167.34;;;35.57;33.19
20630;BME280;17386;43.846;25.950;2023-08-17T11:41:10;101151.63;;;35.65;33.34
20630;BME280;17386;43.846;25.950;2023-08-17T11:43:37;101156.72;;;35.74;33.88
20630;BME280;17386;43.846;25.950;2023-08-17T11:46:04;101146.97;;;35.72;33.62
20630;BME280;17386;43.846;25.950;2023-08-17T11:48:31;101140.53;;;35.51;33.35
20630;BME280;17386;43.846;25.950;2023-08-17T11:50:58;101142.78;;;35.28;33.53
20630;BME280;17386;43.846;25.950;2023-08-17T11:53:32;101142.66;;;34.95;34.00
20630;BME280;17386;43.846;25.950;2023-08-17T11:55:59;101140.75;;;34.95;34.70
20630;BME280;17386;43.846;25.950;2023-08-17T11:58:43;101138.81;;;34.61;34.81
20630;BME280;17386;43.846;25.950;2023-08-17T12:01:12;101140.94;;;34.66;35.26
20630;BME280;17386;43.846;25.950;2023-08-17T12:03:38;101129.69;;;34.61;35.33
20630;BME280;17386;43.846;25.950;2023-08-17T12:06:06;101131.19;;;34.63;35.55
20630;BME280;17386;43.846;25.950;2023-08-17T12:08:33;101127.16;;;34.59;35.06
20630;BME280;17386;43.846;25.950;2023-08-17T12:11:01;101132.63;;;34.52;33.97
20630;BME280;17386;43.846;25.950;2023-08-17T12:13:32;101127.75;;;34.54;34.07
20630;BME280;17386;43.846;25.950;2023-08-17T12:16:00;101123.72;;;34.29;32.91
20630;BME280;17386;43.846;25.950;2023-08-17T12:18:27;101119.50;;;34.33;32.84
20630;BME280;17386;43.846;25.950;2023-08-17T12:20:53;101124.47;;;34.44;33.51
20630;BME280;17386;43.846;25.950;2023-08-17T12:23:21;101129.75;;;34.67;33.31
20630;BME280;17386;43.846;25.950;2023-08-17T12:25:55;101128.31;;;34.85;33.24
20630;BME280;17386;43.846;25.950;2023-08-17T12:28:22;101131.34;;;34.90;32.92
20630;BME280;17386;43.846;25.950;2023-08-17T12:30:57;101131.78;;;34.93;33.18
20630;BME280;17386;43.846;25.950;2023-08-17T12:33:24;101130.97;;;34.99;32.99
20630;BME280;17386;43.846;25.950;2023-08-17T12:35:51;101121.66;;;35.00;32.70
20630;BME280;17386;43.846;25.950;2023-08-17T12:38:16;101129.69;;;34.95;32.40
20630;BME280;17386;43.846;25.950;2023-08-17T12:40:43;101125.78;;;34.83;33.30
20630;BME280;17386;43.846;25.950;2023-08-17T12:43:10;101120.72;;;34.52;33.27
20630;BME280;17386;43.846;25.950;2023-08-17T12:45:36;101118.88;;;34.38;33.47
20630;BME280;17386;43.846;25.950;2023-08-17T12:48:03;101113.88;;;34.41;33.98